Time;durP1;ratioP1;P1;durP2;ratioP2;P2;SDS_P1;SDS_P2;PMS_P1;PMS_P2;Temp;Humidity;BMP_temperature;BMP_pressure;BME280_temperature;BME280_humidity;BME280_pressure;Samples;Min_cycle;Max_cycle;Signal;HPM_P1;HPM_P2
2021/10/14 00:00:12;;;;;;;192.97;59.83;;;11.40;99.90;;;;;;6187539;23;20416;-77
2021/10/14 00:02:41;;;;;;;166.13;44.77;;;11.50;99.90;;;;;;6160964;23;20902;-77
2021/10/14 00:05:10;;;;;;;207.40;52.97;;;11.50;99.90;;;;;;6160960;23;20839;-78
2021/10/14 00:07:40;;;;;;;186.27;52.60;;;11.50;99.90;;;;;;6160199;23;20446;-79
2021/10/14 00:10:09;;;;;;;198.10;57.23;;;11.50;99.90;;;;;;6160694;23;20439;-77
2021/10/14 00:12:37;;;;;;;138.50;36.97;;;11.50;99.90;;;;;;6160694;23;20415;-76
2021/10/14 00:15:07;;;;;;;135.60;43.90;;;11.50;99.90;;;;;;6196993;23;20406;-77
2021/10/14 00:17:35;;;;;;;207.83;45.47;;;11.50;99.90;;;;;;6160613;23;20815;-77
2021/10/14 00:20:04;;;;;;;126.43;54.97;;;11.50;99.90;;;;;;6160510;23;20430;-77
2021/10/14 00:22:32;;;;;;;169.33;51.50;;;11.60;99.90;;;;;;6186890;23;20469;-78
2021/10/14 00:25:01;;;;;;;162.17;43.03;;;11.60;99.90;;;;;;6160923;23;20415;-77
2021/10/14 00:27:29;;;;;;;180.43;49.47;;;11.60;99.90;;;;;;6160344;23;20411;-78
2021/10/14 00:29:58;;;;;;;230.43;52.67;;;11.60;99.90;;;;;;6196522;23;20431;-78
2021/10/14 00:32:26;;;;;;;222.83;59.50;;;11.60;99.90;;;;;;6160435;23;20502;-77
2021/10/14 00:34:54;;;;;;;236.27;59.00;;;11.60;99.90;;;;;;6161525;23;20705;-77
2021/10/14 00:37:22;;;;;;;115.60;38.53;;;11.60;99.90;;;;;;6196856;23;20883;-78
2021/10/14 00:39:50;;;;;;;16.15;14.32;;;11.60;99.90;;;;;;6159210;23;20419;-78
2021/10/14 00:42:20;;;;;;;259.50;60.30;;;11.70;99.90;;;;;;6187238;23;20566;-77
2021/10/14 00:44:50;;;;;;;15.07;12.70;;;11.70;99.90;;;;;;6159735;23;20833;-78
2021/10/14 00:47:19;;;;;;;216.57;58.60;;;11.70;99.90;;;;;;6160518;23;20466;-77
2021/10/14 00:49:48;;;;;;;257.90;49.93;;;11.70;99.90;;;;;;6160069;23;20497;-77
2021/10/14 00:52:17;;;;;;;150.87;40.47;;;11.70;99.90;;;;;;6197435;23;20406;-76
2021/10/14 00:54:46;;;;;;;223.60;54.43;;;11.70;99.90;;;;;;6160608;23;20454;-76
2021/10/14 00:57:14;;;;;;;194.57;45.17;;;11.70;99.90;;;;;;6160461;23;20415;-76
2021/10/14 00:59:44;;;;;;;213.23;54.93;;;11.70;99.90;;;;;;6161495;23;20490;-78
2021/10/14 01:02:13;;;;;;;213.67;51.93;;;11.70;99.90;;;;;;6162086;23;20411;-79
2021/10/14 01:04:42;;;;;;;129.13;38.33;;;11.70;99.90;;;;;;6162884;23;20419;-78
2021/10/14 01:07:10;;;;;;;121.97;43.90;;;11.70;99.90;;;;;;6161706;23;20408;-78
2021/10/14 01:09:40;;;;;;;188.00;48.97;;;11.70;99.90;;;;;;6161678;23;20763;-78
2021/10/14 01:12:09;;;;;;;203.33;61.20;;;11.70;99.90;;;;;;6161614;23;20510;-78
2021/10/14 01:14:37;;;;;;;207.17;56.83;;;11.70;99.90;;;;;;6197789;23;20863;-79
2021/10/14 01:17:06;;;;;;;169.57;53.23;;;11.70;99.90;;;;;;6160800;23;20930;-75
2021/10/14 01:19:36;;;;;;;191.70;50.20;;;11.70;99.90;;;;;;6159988;23;20436;-76
2021/10/14 01:22:06;;;;;;;189.63;51.17;;;11.70;99.90;;;;;;6160179;23;20427;-76
2021/10/14 01:24:34;;;;;;;205.13;58.63;;;11.70;99.90;;;;;;6160137;23;20506;-75
2021/10/14 01:27:03;;;;;;;147.47;53.37;;;11.70;99.90;;;;;;6196237;23;20399;-76
2021/10/14 01:29:32;;;;;;;233.30;64.33;;;11.70;99.90;;;;;;6160064;23;20539;-76
2021/10/14 01:32:01;;;;;;;126.97;51.43;;;11.80;99.90;;;;;;6160215;23;20425;-76
2021/10/14 01:34:29;;;;;;;19.05;17.15;;;11.80;99.90;;;;;;6158932;23;20465;-75
2021/10/14 01:36:57;;;;;;;221.57;59.90;;;11.90;99.90;;;;;;6160104;23;20176;-76
2021/10/14 01:39:27;;;;;;;150.20;47.67;;;11.90;99.90;;;;;;6186021;23;21004;-76
2021/10/14 01:41:56;;;;;;;158.40;50.93;;;11.90;99.90;;;;;;6160023;23;20931;-76
2021/10/14 01:44:24;;;;;;;244.80;60.40;;;11.80;99.90;;;;;;6159481;23;20455;-76
2021/10/14 01:46:52;;;;;;;200.77;55.83;;;11.90;99.90;;;;;;6159961;23;20926;-76
2021/10/14 01:49:20;;;;;;;220.03;63.47;;;11.80;99.90;;;;;;6160027;23;20931;-76
2021/10/14 01:51:48;;;;;;;220.97;62.60;;;11.80;99.90;;;;;;6196134;23;20541;-76
2021/10/14 01:54:17;;;;;;;162.13;50.83;;;11.90;99.90;;;;;;6160065;23;20411;-76
2021/10/14 01:56:46;;;;;;;182.60;54.67;;;11.90;99.90;;;;;;6159740;23;20419;-76
2021/10/14 01:59:14;;;;;;;233.23;59.73;;;11.90;99.90;;;;;;6159725;23;20525;-76
2021/10/14 02:01:42;;;;;;;190.37;49.40;;;11.90;99.90;;;;;;6196328;23;20400;-75
2021/10/14 02:04:11;;;;;;;236.10;67.83;;;11.90;99.90;;;;;;6159868;23;20475;-77
2021/10/14 02:06:39;;;;;;;166.83;50.03;;;11.90;99.90;;;;;;6186127;23;20496;-76
2021/10/14 02:09:07;;;;;;;209.67;55.20;;;11.90;99.90;;;;;;6159439;23;20526;-76
2021/10/14 02:11:36;;;;;;;156.30;54.80;;;11.90;99.90;;;;;;6186022;23;20440;-76
2021/10/14 02:14:06;;;;;;;169.97;54.03;;;11.90;99.90;;;;;;6186292;23;20408;-77
2021/10/14 02:16:34;;;;;;;109.93;37.83;;;12.00;99.90;;;;;;6159428;23;20423;-76
2021/10/14 02:19:02;;;;;;;192.23;58.63;;;12.00;99.90;;;;;;6159578;23;20314;-77
2021/10/14 02:21:30;;;;;;;181.23;50.97;;;12.00;99.90;;;;;;6159817;23;20411;-76
2021/10/14 02:23:59;;;;;;;25.60;21.90;;;12.00;99.90;;;;;;6158372;23;20938;-77
2021/10/14 02:26:27;;;;;;;156.00;47.10;;;12.10;99.90;;;;;;6159613;23;20604;-77
2021/10/14 02:28:55;;;;;;;187.00;46.90;;;12.10;99.90;;;;;;6159636;23;20477;-77
2021/10/14 02:31:24;;;;;;;212.60;58.53;;;12.10;99.90;;;;;;6195801;23;20459;-77
2021/10/14 02:33:52;;;;;;;144.03;63.47;;;12.10;99.90;;;;;;6160451;23;20420;-76
2021/10/14 02:36:21;;;;;;;175.13;60.70;;;12.10;99.90;;;;;;6159567;23;20498;-77
2021/10/14 02:38:49;;;;;;;185.47;47.33;;;12.10;99.90;;;;;;6159465;23;20427;-77
2021/10/14 02:41:17;;;;;;;209.03;56.50;;;12.10;99.90;;;;;;6159462;23;20423;-76
2021/10/14 02:43:48;;;;;;;150.73;51.57;;;12.10;99.90;;;;;;6159464;23;20416;-77
2021/10/14 02:46:16;;;;;;;172.60;49.20;;;12.10;99.90;;;;;;6159540;23;20758;-76
2021/10/14 02:48:46;;;;;;;184.40;57.67;;;12.10;99.90;;;;;;6159516;23;20758;-77
2021/10/14 02:51:14;;;;;;;202.63;63.37;;;12.10;99.90;;;;;;6159348;23;20531;-76
2021/10/14 02:53:42;;;;;;;201.60;53.53;;;12.10;99.90;;;;;;6159933;23;20437;-77
2021/10/14 02:56:10;;;;;;;154.80;46.47;;;12.10;99.90;;;;;;6195755;23;20883;-76
2021/10/14 02:58:38;;;;;;;131.30;46.60;;;12.10;99.90;;;;;;6159407;23;20438;-77
2021/10/14 03:01:06;;;;;;;116.13;42.50;;;12.20;99.90;;;;;;6159351;23;20419;-76
2021/10/14 03:03:35;;;;;;;123.00;42.03;;;12.20;99.90;;;;;;6185965;23;20411;-76
2021/10/14 03:06:05;;;;;;;21.25;18.80;;;12.10;99.90;;;;;;6158686;23;20430;-76
2021/10/14 03:08:33;;;;;;;161.97;46.27;;;12.30;99.90;;;;;;6159416;23;20206;-76
2021/10/14 03:11:01;;;;;;;219.53;54.03;;;12.20;99.90;;;;;;6159671;23;20864;-76
2021/10/14 03:13:29;;;;;;;181.87;49.30;;;12.30;99.90;;;;;;6187069;23;20399;-77
2021/10/14 03:15:57;;;;;;;209.80;46.07;;;12.30;99.90;;;;;;6161362;23;20434;-77
2021/10/14 03:18:25;;;;;;;168.43;44.87;;;12.30;99.90;;;;;;6197434;23;20474;-77
2021/10/14 03:20:54;;;;;;;162.40;41.70;;;12.20;99.90;;;;;;6161417;23;20443;-76
2021/10/14 03:23:23;;;;;;;134.83;41.20;;;12.30;99.90;;;;;;6161314;23;20412;-76
2021/10/14 03:25:51;;;;;;;136.43;42.23;;;12.30;99.90;;;;;;6188043;23;20411;-77
2021/10/14 03:28:20;;;;;;;224.37;49.70;;;12.30;99.90;;;;;;6161329;23;20530;-77
2021/10/14 03:30:48;;;;;;;189.50;41.50;;;12.30;99.90;;;;;;6161338;23;20430;-76
2021/10/14 03:33:17;;;;;;;206.10;53.87;;;12.30;99.90;;;;;;6161200;23;20414;-77
2021/10/14 03:35:45;;;;;;;224.20;59.37;;;12.30;99.90;;;;;;6161136;23;20791;-77
2021/10/14 03:38:13;;;;;;;144.93;43.40;;;12.30;99.90;;;;;;6187316;23;20994;-77
2021/10/14 03:40:43;;;;;;;227.60;50.00;;;12.40;99.90;;;;;;6160943;23;20513;-76
2021/10/14 03:43:11;;;;;;;194.83;62.20;;;12.40;99.90;;;;;;6160904;23;21014;-77
2021/10/14 03:45:39;;;;;;;190.37;66.50;;;12.40;99.90;;;;;;6161039;23;20438;-77
2021/10/14 03:48:08;;;;;;;172.60;44.07;;;12.40;99.90;;;;;;6160973;23;20435;-77
2021/10/14 03:50:36;;;;;;;160.97;48.70;;;12.50;99.90;;;;;;6197359;23;20431;-77
2021/10/14 03:53:04;;;;;;;79.07;27.13;;;12.40;99.90;;;;;;6160637;23;20919;-77
2021/10/14 03:55:32;;;;;;;157.23;53.43;;;12.50;99.90;;;;;;6162313;23;20411;-77
2021/10/14 03:58:02;;;;;;;126.83;44.17;;;12.50;99.90;;;;;;6161026;23;20439;-76
2021/10/14 04:00:30;;;;;;;197.53;50.67;;;12.50;99.90;;;;;;6197622;23;20396;-77
2021/10/14 04:02:58;;;;;;;182.80;53.17;;;12.50;99.90;;;;;;6197698;23;20400;-76
2021/10/14 04:05:26;;;;;;;174.80;44.27;;;12.50;99.90;;;;;;6160607;23;20418;-76
2021/10/14 04:07:54;;;;;;;186.30;45.50;;;12.50;99.90;;;;;;6160806;23;20431;-76
2021/10/14 04:10:23;;;;;;;179.93;51.70;;;12.50;99.90;;;;;;6197110;23;20392;-76
2021/10/14 04:12:51;;;;;;;246.87;56.07;;;12.50;99.90;;;;;;6160842;23;20459;-76
2021/10/14 04:15:20;;;;;;;237.60;42.37;;;12.50;99.90;;;;;;6187459;23;20731;-76
2021/10/14 04:17:48;;;;;;;172.40;44.40;;;12.60;99.90;;;;;;6160810;23;20506;-77
2021/10/14 04:20:16;;;;;;;185.40;54.40;;;12.60;99.90;;;;;;6160659;23;20509;-77
2021/10/14 04:22:45;;;;;;;221.73;63.10;;;12.60;99.90;;;;;;6160939;23;20510;-76
2021/10/14 04:25:14;;;;;;;163.83;47.10;;;12.60;99.90;;;;;;6160266;23;20451;-76
2021/10/14 04:27:42;;;;;;;175.40;40.70;;;12.60;99.90;;;;;;6160733;23;20415;-76
2021/10/14 04:30:10;;;;;;;222.77;64.97;;;12.60;99.90;;;;;;6160617;23;20462;-77
2021/10/14 04:32:40;;;;;;;222.17;45.87;;;12.60;99.90;;;;;;6160427;23;20958;-76
2021/10/14 04:35:09;;;;;;;198.00;51.60;;;12.60;99.90;;;;;;6160431;23;20886;-77
2021/10/14 04:37:41;;;;;;;227.53;43.33;;;12.60;99.90;;;;;;6187269;23;20503;-77
2021/10/14 04:40:10;;;;;;;111.20;37.00;;;12.60;99.90;;;;;;6160385;23;20462;-77
2021/10/14 04:42:41;;;;;;;263.60;60.97;;;12.60;99.90;;;;;;6160559;23;20407;-77
2021/10/14 04:45:10;;;;;;;231.63;42.77;;;12.70;99.90;;;;;;6160528;23;20423;-76
2021/10/14 04:47:40;;;;;;;16.98;13.57;;;12.60;99.90;;;;;;6159224;23;20423;-77
2021/10/14 04:50:09;;;;;;;187.23;60.10;;;12.70;99.90;;;;;;6160453;23;20180;-77
2021/10/14 04:52:38;;;;;;;180.50;43.60;;;12.80;99.90;;;;;;6160281;23;20446;-77
2021/10/14 04:55:07;;;;;;;150.13;44.00;;;12.70;99.90;;;;;;6160796;23;20466;-76
2021/10/14 04:57:35;;;;;;;200.90;48.77;;;12.70;99.90;;;;;;6160228;23;20958;-77
2021/10/14 05:00:04;;;;;;;198.50;44.53;;;12.70;99.90;;;;;;6159839;23;20462;-77
2021/10/14 05:02:32;;;;;;;289.83;65.63;;;12.70;99.90;;;;;;6186979;23;20734;-76
2021/10/14 05:05:02;;;;;;;325.27;57.83;;;12.70;99.90;;;;;;6160008;23;20466;-76
2021/10/14 05:07:30;;;;;;;163.37;52.80;;;12.70;99.90;;;;;;6160272;23;20462;-76
2021/10/14 05:09:58;;;;;;;282.73;45.17;;;12.60;99.90;;;;;;6160258;23;20847;-77
2021/10/14 05:12:26;;;;;;;246.33;60.10;;;12.60;99.90;;;;;;6160564;23;20774;-76
2021/10/14 05:14:54;;;;;;;186.80;44.70;;;12.70;99.90;;;;;;6160180;23;20454;-77
2021/10/14 05:17:22;;;;;;;228.03;59.70;;;12.60;99.90;;;;;;6160138;23;20419;-76
2021/10/14 05:19:50;;;;;;;244.00;58.17;;;12.60;99.90;;;;;;6196649;23;20416;-77
2021/10/14 05:22:20;;;;;;;209.73;55.73;;;12.60;99.90;;;;;;6160284;23;20502;-78
2021/10/14 05:24:48;;;;;;;293.33;67.00;;;12.60;99.90;;;;;;6160071;23;20419;-77
2021/10/14 05:27:16;;;;;;;242.67;53.43;;;12.60;99.90;;;;;;6159966;23;20447;-78
2021/10/14 05:29:44;;;;;;;359.90;69.20;;;12.60;99.90;;;;;;6159972;23;20990;-78
2021/10/14 05:32:13;;;;;;;261.63;57.87;;;12.60;99.90;;;;;;6196710;23;20427;-78
2021/10/14 05:34:41;;;;;;;15.27;13.50;;;12.60;99.90;;;;;;6195377;23;20403;-77
2021/10/14 05:37:09;;;;;;;333.67;68.67;;;12.70;99.90;;;;;;6160210;23;20408;-76
2021/10/14 05:39:38;;;;;;;153.05;37.05;;;12.70;99.90;;;;;;6196026;23;20446;-73
2021/10/14 05:42:07;;;;;;;188.60;47.07;;;12.60;99.90;;;;;;6159906;23;20176;-75
2021/10/14 05:44:35;;;;;;;232.57;44.83;;;12.70;99.90;;;;;;6159978;23;20423;-76
2021/10/14 05:47:03;;;;;;;182.57;49.83;;;12.60;99.90;;;;;;6160029;23;20415;-78
2021/10/14 05:49:31;;;;;;;266.13;57.13;;;12.60;99.90;;;;;;6159781;23;20973;-78
2021/10/14 05:52:00;;;;;;;323.17;59.23;;;12.60;99.90;;;;;;6159734;23;20411;-76
2021/10/14 05:54:28;;;;;;;230.90;58.87;;;12.60;99.90;;;;;;6159956;23;20474;-77
2021/10/14 05:56:58;;;;;;;184.13;56.37;;;12.60;99.90;;;;;;6159796;23;20504;-77
2021/10/14 05:59:26;;;;;;;214.90;58.57;;;12.60;99.90;;;;;;6159942;23;20474;-77
2021/10/14 06:01:55;;;;;;;252.53;58.17;;;12.60;99.90;;;;;;6160317;23;20426;-76
2021/10/14 06:04:23;;;;;;;243.07;54.83;;;12.60;99.90;;;;;;6160651;23;20490;-76
2021/10/14 06:06:51;;;;;;;232.93;52.93;;;12.60;99.90;;;;;;6160276;23;20416;-76
2021/10/14 06:09:19;;;;;;;235.17;61.67;;;12.60;99.90;;;;;;6161139;23;20957;-76
2021/10/14 06:11:47;;;;;;;236.83;61.03;;;12.60;99.90;;;;;;6160686;23;20408;-77
2021/10/14 06:14:17;;;;;;;205.60;58.50;;;12.60;99.90;;;;;;6186997;23;20432;-76
2021/10/14 06:16:45;;;;;;;234.27;56.67;;;12.60;99.90;;;;;;6160551;23;20747;-76
2021/10/14 06:19:13;;;;;;;199.00;53.53;;;12.60;99.90;;;;;;6196811;23;20967;-76
2021/10/14 06:21:41;;;;;;;15.80;13.98;;;12.60;99.90;;;;;;6160355;23;20730;-76
2021/10/14 06:24:11;;;;;;;222.17;60.57;;;12.70;99.90;;;;;;6160479;23;20219;-77
2021/10/14 06:26:39;;;;;;;345.17;66.03;;;12.70;99.90;;;;;;6160529;23;20442;-75
2021/10/14 06:29:07;;;;;;;223.33;55.27;;;12.70;99.90;;;;;;6186434;23;20463;-76
2021/10/14 06:31:36;;;;;;;182.67;48.20;;;12.70;99.90;;;;;;6160522;23;20416;-76
2021/10/14 06:34:05;;;;;;;284.67;65.37;;;12.70;99.90;;;;;;6160397;23;20431;-76
2021/10/14 06:36:33;;;;;;;272.00;69.07;;;12.70;99.90;;;;;;6160289;23;20415;-76
2021/10/14 06:39:01;;;;;;;239.53;56.67;;;12.60;99.90;;;;;;6159688;23;20435;-77
2021/10/14 06:41:29;;;;;;;243.97;49.47;;;12.70;99.90;;;;;;6160337;23;20487;-76
2021/10/14 06:44:07;;;;;;;246.37;56.53;;;12.60;99.90;;;;;;6160369;23;20883;-77
2021/10/14 06:46:37;;;;;;;286.33;54.23;;;12.60;99.90;;;;;;6196734;23;20376;-77
2021/10/14 06:49:06;;;;;;;186.53;44.47;;;12.60;99.90;;;;;;6196662;23;20606;-76
2021/10/14 06:51:34;;;;;;;223.73;51.40;;;12.70;99.90;;;;;;6196591;23;20977;-76
2021/10/14 06:54:02;;;;;;;218.33;53.47;;;12.60;99.90;;;;;;6196153;23;20424;-76
2021/10/14 06:56:30;;;;;;;235.53;50.07;;;12.70;99.90;;;;;;6160366;23;20404;-76
2021/10/14 06:58:58;;;;;;;254.80;53.20;;;12.70;99.90;;;;;;6159679;23;20435;-76
2021/10/14 07:01:27;;;;;;;88.88;28.80;;;12.70;99.90;;;;;;6159858;23;20735;-76
2021/10/14 07:03:57;;;;;;;223.83;55.80;;;12.70;99.90;;;;;;6196926;23;20167;-76
2021/10/14 07:06:25;;;;;;;263.33;53.13;;;12.70;99.90;;;;;;6160180;23;20494;-75
2021/10/14 07:08:53;;;;;;;16.83;14.60;;;12.70;99.90;;;;;;6158447;23;20419;-76
2021/10/14 07:11:22;;;;;;;188.27;47.60;;;12.80;99.90;;;;;;6160210;23;20172;-76
2021/10/14 07:13:50;;;;;;;260.43;50.60;;;12.80;99.90;;;;;;6196277;23;20428;-75
2021/10/14 07:16:18;;;;;;;194.93;47.07;;;12.80;99.90;;;;;;6160101;23;20418;-76
2021/10/14 07:18:46;;;;;;;294.80;49.63;;;12.80;99.90;;;;;;6186479;23;20748;-76
2021/10/14 07:21:16;;;;;;;202.77;49.80;;;12.80;99.90;;;;;;6186618;23;20407;-76
2021/10/14 07:23:44;;;;;;;196.93;56.70;;;12.80;99.90;;;;;;6160010;23;20442;-76
2021/10/14 07:26:12;;;;;;;159.63;51.93;;;12.80;99.90;;;;;;6196335;23;20860;-76
2021/10/14 07:28:40;;;;;;;193.40;47.73;;;12.80;99.90;;;;;;6160086;23;20938;-76
2021/10/14 07:31:08;;;;;;;192.43;51.03;;;12.80;99.90;;;;;;6159964;23;20415;-75
2021/10/14 07:33:37;;;;;;;245.60;52.20;;;12.80;99.90;;;;;;6159902;23;20442;-76
2021/10/14 07:36:07;;;;;;;140.03;35.23;;;12.90;99.90;;;;;;6196291;23;20395;-76
2021/10/14 07:38:36;;;;;;;196.30;50.53;;;12.90;99.90;;;;;;6186821;23;20716;-77
2021/10/14 07:41:05;;;;;;;280.00;64.90;;;12.90;99.90;;;;;;6160288;23;20470;-76
2021/10/14 07:43:33;;;;;;;154.43;47.67;;;12.90;99.90;;;;;;6159970;23;20435;-76
2021/10/14 07:46:02;;;;;;;189.33;56.00;;;12.90;99.90;;;;;;6159938;23;20423;-77
2021/10/14 07:48:30;;;;;;;48.67;21.07;;;13.00;99.90;;;;;;6186326;23;20411;-76
2021/10/14 07:50:58;;;;;;;175.83;57.53;;;13.00;99.90;;;;;;6160162;23;20419;-76
2021/10/14 07:53:26;;;;;;;187.47;43.37;;;13.10;99.90;;;;;;6160236;23;20442;-76
2021/10/14 07:55:56;;;;;;;193.50;55.60;;;13.10;99.90;;;;;;6159904;23;20513;-76
2021/10/14 07:58:24;;;;;;;180.37;54.87;;;13.10;99.90;;;;;;6160106;23;20532;-75
2021/10/14 08:00:52;;;;;;;192.30;47.47;;;13.10;99.90;;;;;;6162227;23;20426;-76
2021/10/14 08:03:21;;;;;;;237.30;57.93;;;13.10;99.90;;;;;;6161545;23;20994;-76
2021/10/14 08:05:49;;;;;;;249.87;63.73;;;13.20;99.90;;;;;;6198463;23;20870;-76
2021/10/14 08:08:17;;;;;;;267.10;66.10;;;13.20;99.90;;;;;;6198064;23;20454;-76
2021/10/14 08:10:47;;;;;;;257.27;44.90;;;13.20;99.90;;;;;;6162088;23;20425;-76
2021/10/14 08:13:16;;;;;;;167.87;47.87;;;13.20;99.90;;;;;;6188252;23;20905;-77
2021/10/14 08:15:49;;;;;;;187.03;56.37;;;13.20;99.90;;;;;;6161064;23;20420;-76
2021/10/14 08:18:18;;;;;;;179.30;44.53;;;13.30;99.90;;;;;;6160715;23;20435;-77
2021/10/14 08:20:48;;;;;;;203.30;66.37;;;13.30;99.90;;;;;;6197329;23;20400;-77
2021/10/14 08:23:18;;;;;;;226.30;64.37;;;13.30;99.90;;;;;;6186944;23;20962;-77
2021/10/14 08:25:46;;;;;;;189.87;58.57;;;13.40;99.90;;;;;;6197479;23;20395;-77
2021/10/14 08:28:16;;;;;;;221.97;54.40;;;13.40;99.90;;;;;;6160547;23;20443;-77
2021/10/14 08:30:46;;;;;;;163.00;55.20;;;13.40;99.90;;;;;;6160778;23;20913;-77
2021/10/14 08:33:15;;;;;;;185.30;58.07;;;13.40;99.90;;;;;;6187415;23;20475;-77
2021/10/14 08:35:44;;;;;;;19.92;17.60;;;13.50;99.90;;;;;;6159351;23;20414;-77
2021/10/14 08:38:13;;;;;;;281.57;63.80;;;13.50;99.90;;;;;;6160619;23;20271;-77
2021/10/14 08:40:42;;;;;;;193.03;65.13;;;13.50;99.90;;;;;;6160564;23;20427;-77
2021/10/14 08:43:14;;;;;;;196.40;61.53;;;13.50;99.90;;;;;;6161632;23;20511;-77
2021/10/14 08:45:46;;;;;;;157.73;67.10;;;13.50;99.90;;;;;;6160422;23;20449;-77
2021/10/14 08:48:14;;;;;;;256.17;57.60;;;13.50;99.90;;;;;;6197220;23;20419;-77
2021/10/14 08:50:47;;;;;;;132.53;46.60;;;13.50;99.90;;;;;;6161015;23;20908;-77
2021/10/14 08:53:16;;;;;;;122.20;49.67;;;13.50;99.90;;;;;;6197019;23;20711;-77
2021/10/14 08:55:44;;;;;;;159.40;51.33;;;13.50;99.90;;;;;;6197246;23;20462;-77
2021/10/14 08:58:14;;;;;;;149.80;57.20;;;13.50;99.90;;;;;;6160263;23;20439;-76
2021/10/14 09:01:06;;;;;;;255.33;64.60;;;13.40;99.90;;;;;;6160345;23;20728;-76
2021/10/14 09:03:38;;;;;;;168.20;64.30;;;13.40;99.90;;;;;;6186998;23;20938;-76
2021/10/14 09:06:10;;;;;;;184.57;62.80;;;13.50;99.90;;;;;;6160359;23;20451;-76
2021/10/14 09:08:41;;;;;;;173.57;58.20;;;13.40;99.90;;;;;;6160205;23;20946;-76
2021/10/14 09:11:12;;;;;;;213.90;57.73;;;13.50;99.90;;;;;;6196667;23;20435;-75
2021/10/14 09:13:46;;;;;;;239.97;62.03;;;13.50;99.90;;;;;;6160072;23;20404;-76
2021/10/14 09:16:28;;;;;;;218.70;75.37;;;13.50;99.90;;;;;;6160529;23;20412;-76
2021/10/14 09:19:09;;;;;;;141.80;52.43;;;13.50;99.90;;;;;;6196422;23;20428;-76
2021/10/14 09:21:37;;;;;;;23.63;20.00;;;13.60;99.90;;;;;;6158962;23;20491;-76
2021/10/14 09:24:25;;;;;;;191.67;67.47;;;13.70;99.90;;;;;;6186831;23;20558;-76
2021/10/14 09:26:55;;;;;;;189.50;67.33;;;13.80;99.90;;;;;;6160149;23;20475;-75
2021/10/14 09:29:25;;;;;;;212.27;65.70;;;13.70;99.90;;;;;;6160054;23;20442;-75
2021/10/14 09:31:58;;;;;;;128.83;55.67;;;13.80;99.90;;;;;;6160090;23;20415;-76
2021/10/14 09:34:28;;;;;;;228.67;62.23;;;13.80;99.90;;;;;;6196631;23;20454;-76
2021/10/14 09:36:57;;;;;;;260.90;74.03;;;13.80;99.90;;;;;;6187689;23;20432;-76
2021/10/14 09:39:27;;;;;;;351.90;80.53;;;13.70;99.90;;;;;;6159870;23;20451;-76
2021/10/14 09:41:57;;;;;;;259.70;60.30;;;13.80;99.90;;;;;;6186553;23;20414;-76
2021/10/14 09:44:50;;;;;;;196.80;61.10;;;13.80;99.90;;;;;;6159912;23;20427;-76
2021/10/14 09:47:20;;;;;;;189.03;58.37;;;13.80;99.90;;;;;;6197019;23;20462;-76
2021/10/14 09:49:48;;;;;;;119.07;49.00;;;13.90;99.90;;;;;;6159861;23;20439;-76
2021/10/14 09:52:16;;;;;;;209.97;64.70;;;13.90;99.90;;;;;;6159798;23;20791;-76
2021/10/14 09:54:44;;;;;;;267.00;70.63;;;13.90;99.90;;;;;;6196312;23;20432;-76
2021/10/14 09:57:13;;;;;;;217.33;77.13;;;13.90;99.90;;;;;;6160250;23;20954;-76
2021/10/14 09:59:43;;;;;;;263.67;81.10;;;14.00;99.90;;;;;;6159780;23;20439;-76
2021/10/14 10:02:12;;;;;;;227.37;66.17;;;14.00;99.90;;;;;;6160201;23;20458;-76
2021/10/14 10:04:43;;;;;;;270.47;84.37;;;14.00;99.90;;;;;;6159791;23;20465;-76
2021/10/14 10:07:14;;;;;;;335.30;101.27;;;14.00;99.90;;;;;;6196458;23;20376;-76
2021/10/14 10:09:43;;;;;;;242.87;100.37;;;14.10;99.90;;;;;;6159732;23;20439;-76
2021/10/14 10:12:12;;;;;;;16.10;14.40;;;14.10;99.90;;;;;;6158709;23;20871;-76
2021/10/14 10:14:40;;;;;;;340.87;120.70;;;14.20;99.90;;;;;;6186554;23;20188;-76
2021/10/14 10:17:11;;;;;;;349.50;126.70;;;14.30;99.90;;;;;;6159793;23;20421;-77
2021/10/14 10:19:46;;;;;;;392.40;134.50;;;14.30;99.90;;;;;;6159618;23;20443;-76
2021/10/14 10:22:44;;;;;;;45.27;40.80;;;14.30;99.90;;;;;;6159279;23;20502;-76
2021/10/14 10:25:34;;;;;;;46.87;42.67;;;14.30;99.90;;;;;;6183974;23;20404;-76
2021/10/14 10:28:06;;;;;;;48.27;43.20;;;14.30;99.90;;;;;;6159363;23;20498;-77
2021/10/14 10:30:54;;;;;;;76.83;58.40;;;14.30;99.90;;;;;;6159585;23;20399;-76
2021/10/14 10:33:51;;;;;;;277.10;156.23;;;14.30;99.90;;;;;;6195882;23;20438;-76
2021/10/14 10:36:49;;;;;;;95.73;66.80;;;14.30;99.90;;;;;;6195864;23;20425;-76
2021/10/14 10:39:48;;;;;;;75.47;60.23;;;14.40;99.90;;;;;;6192897;23;20420;-77
2021/10/14 10:42:24;;;;;;;945.87;342.50;;;14.30;99.90;;;;;;6013646;23;20455;-76
2021/10/14 10:44:53;;;;;;;118.63;87.80;;;14.40;99.90;;;;;;6162148;23;20446;-76
2021/10/14 10:47:40;;;;;;;79.03;65.03;;;14.40;99.90;;;;;;6196052;23;20396;-76
2021/10/14 10:50:09;;;;;;;14.50;12.40;;;14.40;99.90;;;;;;6143821;23;20416;-77
2021/10/14 10:52:41;;;;;;;341.67;122.87;;;14.50;99.90;;;;;;6195708;23;20188;-76
2021/10/14 10:55:31;;;;;;;199.63;90.93;;;14.50;99.90;;;;;;6196085;23;20411;-77
2021/10/14 10:58:00;;;;;;;39.17;29.43;;;14.50;99.90;;;;;;6196323;23;20581;-77
2021/10/14 11:00:29;;;;;;;66.13;49.83;;;14.50;99.90;;;;;;6159353;23;20412;-77
2021/10/14 11:03:15;;;;;;;289.13;164.77;;;14.50;99.90;;;;;;6159222;23;20470;-77
2021/10/14 11:05:46;;;;;;;86.97;78.93;;;14.60;99.90;;;;;;6159721;23;20494;-77
2021/10/14 11:08:19;;;;;;;605.23;262.50;;;14.60;99.90;;;;;;6185936;23;20480;-77
2021/10/14 11:10:49;;;;;;;645.00;280.67;;;14.60;99.90;;;;;;6159882;23;20445;-77
2021/10/14 11:13:18;;;;;;;343.93;230.63;;;14.60;99.90;;;;;;6159235;23;20412;-77
2021/10/14 11:15:53;;;;;;;126.23;88.23;;;14.60;99.90;;;;;;6158914;23;20431;-77
2021/10/14 11:18:22;;;;;;;337.77;184.13;;;14.60;99.90;;;;;;6195287;23;20807;-77
2021/10/14 11:20:54;;;;;;;182.73;153.43;;;14.60;99.90;;;;;;6159138;23;20506;-77
2021/10/14 11:23:26;;;;;;;178.30;127.63;;;14.60;99.90;;;;;;6159529;23;20410;-77
2021/10/14 11:26:03;;;;;;;156.87;106.00;;;14.60;99.90;;;;;;6159285;23;20485;-77
2021/10/14 11:28:32;;;;;;;157.70;106.70;;;14.60;99.90;;;;;;6185777;23;20481;-77
2021/10/14 11:31:02;;;;;;;64.90;58.87;;;14.60;99.90;;;;;;6159365;23;20800;-77
2021/10/14 11:33:36;;;;;;;267.97;152.10;;;14.60;99.90;;;;;;6159948;23;20486;-77
2021/10/14 11:36:06;;;;;;;263.60;158.20;;;14.60;99.90;;;;;;6161129;23;20466;-75
2021/10/14 11:38:35;;;;;;;1250.30;535.13;;;14.60;99.90;;;;;;6160895;23;20438;-77
2021/10/14 11:41:04;;;;;;;906.87;470.73;;;14.60;99.90;;;;;;6160977;23;20423;-76
2021/10/14 11:43:32;;;;;;;1529.83;658.60;;;14.60;99.90;;;;;;6161121;23;20411;-76
2021/10/14 11:46:00;;;;;;;748.67;444.37;;;14.60;99.90;;;;;;6161025;23;20505;-76
2021/10/14 11:48:30;;;;;;;1782.67;753.57;;;14.60;99.90;;;;;;6160960;23;20457;-76
2021/10/14 11:51:03;;;;;;;1878.17;724.00;;;14.60;99.90;;;;;;6187383;23;20416;-76
2021/10/14 11:53:31;;;;;;;1712.20;729.07;;;14.70;99.90;;;;;;6197402;23;20396;-76
2021/10/14 11:56:04;;;;;;;1728.93;695.50;;;14.70;99.90;;;;;;6160938;23;20446;-76
2021/10/14 11:58:32;;;;;;;1983.10;802.10;;;14.70;99.90;;;;;;6197259;23;20452;-76
2021/10/14 12:01:04;;;;;;;1999.90;909.07;;;14.70;99.90;;;;;;6161321;23;20878;-76
2021/10/14 12:03:34;;;;;;;1985.50;790.87;;;14.70;99.90;;;;;;6161807;23;20879;-76
2021/10/14 12:06:03;;;;;;;1925.83;769.40;;;14.70;99.90;;;;;;6197565;23;20398;-76
2021/10/14 12:08:32;;;;;;;1999.90;909.47;;;14.70;99.90;;;;;;6160738;23;20420;-76
2021/10/14 12:11:01;;;;;;;1999.90;999.90;;;14.70;99.90;;;;;;6197237;23;20462;-76
2021/10/14 12:13:31;;;;;;;1999.90;955.60;;;14.70;99.90;;;;;;6160809;23;20400;-76
2021/10/14 12:16:10;;;;;;;479.02;234.98;;;14.70;99.90;;;;;;6160590;23;20509;-75
2021/10/14 12:18:38;;;;;;;1999.90;850.57;;;14.70;99.90;;;;;;6160571;23;20195;-77
2021/10/14 12:21:28;;;;;;;1999.80;867.50;;;14.70;99.90;;;;;;6161122;23;20910;-76
2021/10/14 12:24:08;;;;;;;8.60;7.70;;;14.80;99.90;;;;;;6195939;23;20444;-75
2021/10/14 12:26:41;;;;;;;909.53;370.70;;;14.90;99.90;;;;;;6160824;23;20244;-76
2021/10/14 12:29:27;;;;;;;679.67;370.40;;;14.90;99.90;;;;;;6197142;23;20424;-76